Time;durP1;ratioP1;P1;durP2;ratioP2;P2;SDS_P1;SDS_P2;PMS_P1;PMS_P2;Temp;Humidity;BMP_temperature;BMP_pressure;BME280_temperature;BME280_humidity;BME280_pressure;Samples;Min_cycle;Max_cycle;Signal;HPM_P1;HPM_P2
2022/08/04 00:01:06;;;;;;;8.35;3.55;;;20.00;99.90;;;;;;5063529;28;20048;-84
2022/08/04 00:03:50;;;;;;;8.02;3.95;;;19.90;99.90;;;;;;5057968;28;20048;-84
2022/08/04 00:06:34;;;;;;;7.70;3.95;;;19.90;99.90;;;;;;5066237;28;20115;-84
2022/08/04 00:09:07;;;;;;;12.85;4.78;;;19.90;99.90;;;;;;5073518;28;20036;-84
2022/08/04 00:11:35;;;;;;;10.35;4.32;;;19.90;99.90;;;;;;5063753;28;20039;-83
2022/08/04 00:14:18;;;;;;;9.57;4.22;;;19.90;99.90;;;;;;5049723;28;20071;-84
2022/08/04 00:16:48;;;;;;;7.90;4.22;;;19.90;99.90;;;;;;5064597;28;20510;-84
2022/08/04 00:19:28;;;;;;;10.48;4.50;;;19.90;99.90;;;;;;5050334;28;20044;-84
2022/08/04 00:22:07;;;;;;;9.38;5.22;;;19.90;99.90;;;;;;5092425;28;20552;-84
2022/08/04 00:24:35;;;;;;;6.93;4.80;;;19.90;99.90;;;;;;5065525;28;20048;-84
2022/08/04 00:27:02;;;;;;;7.85;4.93;;;20.00;99.90;;;;;;5076102;28;20570;-84
2022/08/04 00:29:29;;;;;;;10.60;4.75;;;20.00;99.90;;;;;;5063017;28;20040;-84
2022/08/04 00:31:56;;;;;;;8.45;4.93;;;20.00;99.90;;;;;;5071424;28;20044;-84
2022/08/04 00:34:24;;;;;;;11.93;6.22;;;20.00;99.90;;;;;;5068303;28;20090;-84
2022/08/04 00:36:53;;;;;;;11.70;5.50;;;20.00;99.90;;;;;;5044340;28;20052;-84
2022/08/04 00:39:20;;;;;;;7.20;5.13;;;20.00;99.90;;;;;;5060462;28;20419;-84
2022/08/04 00:42:08;;;;;;;8.55;4.90;;;20.00;99.90;;;;;;5062282;28;20059;-84
2022/08/04 00:44:46;;;;;;;10.93;6.38;;;19.90;99.90;;;;;;5042034;28;20415;-84
2022/08/04 00:47:31;;;;;;;12.27;5.95;;;19.90;99.90;;;;;;5099579;27;20043;-84
2022/08/04 00:50:10;;;;;;;10.13;5.97;;;19.90;99.90;;;;;;5068055;27;20046;-84
2022/08/04 00:52:46;;;;;;;11.95;6.60;;;19.80;99.90;;;;;;5045588;28;20526;-84
2022/08/04 00:55:21;;;;;;;10.98;6.57;;;19.90;99.90;;;;;;5044391;28;20112;-84
2022/08/04 00:57:53;;;;;;;8.45;6.38;;;19.80;99.90;;;;;;5065767;28;20112;-84
2022/08/04 01:00:19;;;;;;;13.43;7.47;;;19.80;99.90;;;;;;5073460;28;20387;-83
2022/08/04 01:02:54;;;;;;;14.75;7.30;;;19.80;99.90;;;;;;5077581;28;20052;-84
2022/08/04 01:05:28;;;;;;;11.38;6.85;;;19.80;99.90;;;;;;5048707;28;20112;-84
2022/08/04 01:08:10;;;;;;;11.77;6.95;;;19.80;99.90;;;;;;5086842;28;20682;-84
2022/08/04 01:11:08;;;;;;;14.45;7.03;;;19.80;99.90;;;;;;5073019;28;20532;-84
2022/08/04 01:14:15;;;;;;;13.90;6.65;;;19.80;99.90;;;;;;5044618;28;20112;-83
2022/08/04 01:16:49;;;;;;;15.15;7.53;;;19.90;99.90;;;;;;5028432;28;20075;-84
2022/08/04 01:20:14;;;;;;;11.15;6.68;;;19.80;99.90;;;;;;5033452;28;20060;-84
2022/08/04 01:23:14;;;;;;;10.52;6.78;;;19.80;99.90;;;;;;4959173;28;20049;-83
2022/08/04 01:25:52;;;;;;;11.82;7.40;;;19.80;99.90;;;;;;4966821;28;20048;-84
2022/08/04 01:29:05;;;;;;;13.73;7.47;;;19.80;99.90;;;;;;5064640;28;20051;-84
2022/08/04 01:31:58;;;;;;;11.80;6.30;;;19.80;99.90;;;;;;5013799;28;20045;-84
2022/08/04 01:34:27;;;;;;;12.10;7.00;;;19.80;99.90;;;;;;5019673;28;20044;-84
2022/08/04 01:37:14;;;;;;;10.77;7.57;;;19.70;99.90;;;;;;5081644;27;20486;-84
2022/08/04 01:39:59;;;;;;;10.95;7.00;;;19.80;99.90;;;;;;5049822;27;20055;-84
2022/08/04 01:42:25;;;;;;;13.52;8.10;;;19.80;99.90;;;;;;5045944;28;20044;-84
2022/08/04 01:44:54;;;;;;;12.43;7.40;;;19.80;99.90;;;;;;5053788;27;20048;-85
2022/08/04 01:47:21;;;;;;;12.30;7.20;;;19.70;99.90;;;;;;5064587;27;20784;-84
2022/08/04 01:49:50;;;;;;;10.75;7.65;;;19.80;99.90;;;;;;5088231;27;20491;-84
2022/08/04 01:52:17;;;;;;;12.00;7.32;;;19.80;99.90;;;;;;5085281;27;20034;-84
2022/08/04 01:54:47;;;;;;;11.55;6.65;;;19.80;99.90;;;;;;5115111;27;20050;-84
2022/08/04 01:57:16;;;;;;;10.52;7.28;;;19.70;99.90;;;;;;5098554;27;20050;-83
2022/08/04 01:59:46;;;;;;;14.20;7.47;;;19.70;99.90;;;;;;5065546;27;20051;-84
2022/08/04 02:02:12;;;;;;;12.77;7.30;;;19.70;99.90;;;;;;5090111;27;20043;-84
2022/08/04 02:04:38;;;;;;;9.93;6.63;;;19.70;99.90;;;;;;5054731;27;20143;-84
2022/08/04 02:07:22;;;;;;;11.57;7.05;;;19.60;99.90;;;;;;5049538;27;20678;-84
2022/08/04 02:10:00;;;;;;;15.55;7.07;;;19.60;99.90;;;;;;5120400;27;20066;-84
2022/08/04 02:12:33;;;;;;;11.80;6.63;;;19.50;99.90;;;;;;5088215;27;20073;-84
2022/08/04 02:15:06;;;;;;;12.18;7.43;;;19.50;99.90;;;;;;5075373;27;20084;-84
2022/08/04 02:17:48;;;;;;;13.52;7.22;;;19.40;99.90;;;;;;5093686;27;20135;-83
2022/08/04 02:20:22;;;;;;;15.63;7.97;;;19.50;99.90;;;;;;5080433;27;20846;-84
2022/08/04 02:23:13;;;;;;;10.15;6.90;;;19.50;99.90;;;;;;5072995;27;20034;-84
2022/08/04 02:25:53;;;;;;;12.57;7.17;;;19.40;99.90;;;;;;5086854;27;20051;-84
2022/08/04 02:28:57;;;;;;;9.85;6.85;;;19.40;99.90;;;;;;5068771;27;20407;-84
2022/08/04 02:31:36;;;;;;;11.15;6.90;;;19.40;99.90;;;;;;5098786;27;20041;-84
2022/08/04 02:34:23;;;;;;;10.60;7.53;;;19.40;99.90;;;;;;5070512;27;20119;-84
2022/08/04 02:36:51;;;;;;;10.02;7.55;;;19.40;99.90;;;;;;5079862;27;20043;-84
2022/08/04 02:39:19;;;;;;;12.18;7.40;;;19.40;99.90;;;;;;5085453;27;20512;-84
2022/08/04 02:41:47;;;;;;;11.18;7.25;;;19.40;99.90;;;;;;5063347;27;20056;-84
2022/08/04 02:44:17;;;;;;;12.82;7.93;;;19.30;99.90;;;;;;5086963;27;20049;-84
2022/08/04 02:46:45;;;;;;;11.68;7.47;;;19.40;99.90;;;;;;5065846;27;20047;-84
2022/08/04 02:49:12;;;;;;;16.20;7.68;;;19.30;99.90;;;;;;5081222;27;20054;-84
2022/08/04 02:51:44;;;;;;;11.57;7.43;;;19.30;99.90;;;;;;5037172;27;20119;-84
2022/08/04 02:54:14;;;;;;;10.90;8.23;;;19.30;99.90;;;;;;5070093;27;20066;-84
2022/08/04 02:56:44;;;;;;;13.10;8.13;;;19.20;99.90;;;;;;5067052;27;20051;-84
2022/08/04 02:59:13;;;;;;;14.88;8.65;;;19.20;99.90;;;;;;5068749;27;20122;-85
2022/08/04 03:01:40;;;;;;;10.98;7.85;;;19.20;99.90;;;;;;5078715;27;20047;-84
2022/08/04 03:04:37;;;;;;;10.23;7.25;;;19.10;99.90;;;;;;5071074;27;20049;-85
2022/08/04 03:07:21;;;;;;;11.00;7.60;;;19.10;99.90;;;;;;5068102;27;20057;-84
2022/08/04 03:10:09;;;;;;;11.80;7.22;;;19.20;99.90;;;;;;5064296;27;20047;-85
2022/08/04 03:13:09;;;;;;;13.35;7.75;;;19.10;99.90;;;;;;5085470;27;20046;-85
2022/08/04 03:15:53;;;;;;;11.25;7.38;;;19.10;99.90;;;;;;5082962;27;20051;-84
2022/08/04 03:18:34;;;;;;;13.48;7.05;;;19.10;99.90;;;;;;5070571;27;20631;-84
2022/08/04 03:21:21;;;;;;;13.05;7.75;;;19.00;99.90;;;;;;5100732;27;20772;-85
2022/08/04 03:24:05;;;;;;;11.30;7.40;;;19.00;99.90;;;;;;5054884;27;20483;-84
2022/08/04 03:26:59;;;;;;;11.95;8.18;;;19.00;99.90;;;;;;5065301;27;21210;-84
2022/08/04 03:29:31;;;;;;;9.98;7.18;;;19.00;99.90;;;;;;5100245;27;20046;-84
2022/08/04 03:32:21;;;;;;;12.07;8.02;;;19.00;99.90;;;;;;5100027;27;20050;-84
2022/08/04 03:35:25;;;;;;;14.00;7.70;;;19.00;99.90;;;;;;5099131;27;20066;-84
2022/08/04 03:38:29;;;;;;;16.08;7.85;;;18.90;99.90;;;;;;5067828;27;20490;-84
2022/08/04 03:41:36;;;;;;;10.30;6.50;;;19.00;99.90;;;;;;5084862;28;20479;-84
2022/08/04 03:44:11;;;;;;;10.38;7.75;;;18.90;99.90;;;;;;5085923;27;20698;-84
2022/08/04 03:46:46;;;;;;;14.80;8.07;;;18.90;99.90;;;;;;5067333;27;20144;-85
2022/08/04 03:49:40;;;;;;;13.68;6.95;;;18.90;99.90;;;;;;5082089;27;20042;-84
2022/08/04 03:55:27;;;;;;;12.82;7.63;;;19.00;99.90;;;;;;5101928;27;20081;-84
2022/08/04 03:58:11;;;;;;;13.73;6.93;;;18.90;99.90;;;;;;5077369;27;20121;-84
2022/08/04 04:00:46;;;;;;;14.90;6.93;;;18.90;99.90;;;;;;5083549;27;20078;-84
2022/08/04 04:03:26;;;;;;;12.13;7.57;;;18.90;99.90;;;;;;5080645;27;20051;-84
2022/08/04 04:06:21;;;;;;;11.50;7.32;;;18.90;99.90;;;;;;5070069;27;20035;-84
2022/08/04 04:09:20;;;;;;;11.75;7.65;;;18.80;99.90;;;;;;5084378;27;20059;-84
2022/08/04 04:12:05;;;;;;;11.93;7.03;;;18.80;99.90;;;;;;5082252;27;20039;-84
2022/08/04 04:14:52;;;;;;;12.43;6.88;;;18.80;99.90;;;;;;5116941;27;20058;-84
2022/08/04 04:17:36;;;;;;;12.82;6.68;;;18.80;99.90;;;;;;5071876;27;20100;-84
2022/08/04 04:20:13;;;;;;;9.63;6.47;;;18.80;99.90;;;;;;5101059;27;20035;-84
2022/08/04 04:23:07;;;;;;;11.25;6.55;;;18.80;99.90;;;;;;5063896;27;20035;-84
2022/08/04 04:26:11;;;;;;;7.97;6.43;;;18.90;99.90;;;;;;5081153;28;20051;-84
2022/08/04 04:28:56;;;;;;;8.95;6.40;;;18.90;99.90;;;;;;5085691;27;20623;-85
2022/08/04 04:31:41;;;;;;;12.55;7.05;;;18.90;99.90;;;;;;5078622;27;20584;-84
2022/08/04 04:34:34;;;;;;;10.65;7.57;;;18.90;99.90;;;;;;5072079;27;20039;-84
2022/08/04 04:37:12;;;;;;;12.27;7.20;;;19.00;99.90;;;;;;5064854;27;20046;-84
2022/08/04 04:40:01;;;;;;;12.60;6.90;;;19.00;99.90;;;;;;5079114;27;20050;-84
2022/08/04 04:42:52;;;;;;;14.73;7.53;;;19.00;99.90;;;;;;5061863;27;20932;-84
2022/08/04 04:45:45;;;;;;;10.82;7.50;;;19.00;99.90;;;;;;5070838;27;20616;-84
2022/08/04 04:48:41;;;;;;;11.93;8.13;;;19.10;99.90;;;;;;5087543;27;20418;-85
2022/08/04 04:51:22;;;;;;;11.52;8.00;;;19.10;99.90;;;;;;5064114;27;20035;-85
2022/08/04 04:53:57;;;;;;;10.75;7.50;;;19.20;99.90;;;;;;5073189;27;20045;-84
2022/08/04 04:56:33;;;;;;;11.93;7.30;;;19.20;99.90;;;;;;5101236;27;20050;-84
2022/08/04 04:59:01;;;;;;;10.27;6.78;;;19.30;99.90;;;;;;5085636;27;20399;-84
2022/08/04 05:01:30;;;;;;;13.73;6.72;;;19.30;99.90;;;;;;5069335;27;20081;-84
2022/08/04 05:04:16;;;;;;;9.70;6.53;;;19.40;99.90;;;;;;5086882;27;20060;-84
2022/08/04 05:07:33;;;;;;;11.32;7.30;;;19.50;99.90;;;;;;5069588;27;20034;-84
2022/08/04 05:10:17;;;;;;;9.88;6.60;;;19.60;99.90;;;;;;5005239;28;20052;-85
2022/08/04 05:12:55;;;;;;;13.20;7.32;;;19.70;99.90;;;;;;5085073;27;20046;-84
2022/08/04 05:15:27;;;;;;;15.85;7.13;;;20.00;99.90;;;;;;5069803;27;20684;-84
2022/08/04 05:17:57;;;;;;;10.95;6.63;;;20.20;99.90;;;;;;5067502;27;20043;-85
2022/08/04 05:20:23;;;;;;;11.88;6.78;;;20.40;99.90;;;;;;5101166;27;20046;-84
2022/08/04 05:22:58;;;;;;;12.90;7.22;;;20.70;99.90;;;;;;5089173;27;20049;-85
2022/08/04 05:25:42;;;;;;;12.40;7.55;;;20.90;99.90;;;;;;5072009;27;20069;-84
2022/08/04 05:28:18;;;;;;;14.75;7.65;;;21.10;99.90;;;;;;5068941;27;20047;-84
2022/08/04 05:30:54;;;;;;;12.23;7.78;;;21.10;99.90;;;;;;5081490;27;20038;-85
2022/08/04 05:33:48;;;;;;;9.65;7.57;;;21.10;99.90;;;;;;5072857;27;20050;-85
2022/08/04 05:36:18;;;;;;;12.23;7.63;;;21.10;99.90;;;;;;5096348;27;20130;-84
2022/08/04 05:38:47;;;;;;;12.18;8.05;;;21.20;99.90;;;;;;5082712;27;20046;-84
2022/08/04 05:41:14;;;;;;;10.48;7.28;;;21.30;99.90;;;;;;5098981;27;20065;-84
2022/08/04 05:43:44;;;;;;;15.52;8.15;;;21.30;99.90;;;;;;5046787;27;20502;-84
2022/08/04 05:46:12;;;;;;;10.77;7.95;;;21.30;99.90;;;;;;5070510;28;20836;-84
2022/08/04 05:48:39;;;;;;;10.18;7.00;;;21.40;99.90;;;;;;5049082;28;20048;-95
2022/08/04 05:51:09;;;;;;;14.07;8.35;;;21.60;99.90;;;;;;5069782;28;21028;-89
2022/08/04 05:53:37;;;;;;;13.48;7.72;;;21.70;99.90;;;;;;5061121;28;20043;-88
2022/08/04 05:56:05;;;;;;;13.85;7.65;;;21.80;99.90;;;;;;5036902;28;20051;-88
2022/08/04 05:58:32;;;;;;;14.90;7.72;;;21.90;99.90;;;;;;5058259;28;20452;-89
2022/08/04 06:00:59;;;;;;;11.07;7.95;;;22.00;99.90;;;;;;5027333;28;20077;-89
2022/08/04 06:03:29;;;;;;;10.93;8.55;;;22.00;99.90;;;;;;5042947;28;20048;-89
2022/08/04 06:05:57;;;;;;;11.43;8.00;;;22.20;99.90;;;;;;5065928;28;20192;-89
2022/08/04 06:08:24;;;;;;;12.55;7.82;;;22.30;99.90;;;;;;5032654;28;20430;-89
2022/08/04 06:10:52;;;;;;;11.05;7.90;;;22.40;99.90;;;;;;5048472;28;20051;-89
2022/08/04 06:13:24;;;;;;;12.02;7.60;;;22.60;99.90;;;;;;5046786;28;20044;-89
2022/08/04 06:15:52;;;;;;;12.05;7.95;;;22.70;99.90;;;;;;5060793;28;20051;-89
2022/08/04 06:18:19;;;;;;;10.20;7.50;;;22.80;99.90;;;;;;5046829;28;20047;-88
2022/08/04 06:20:47;;;;;;;13.35;7.72;;;22.90;99.90;;;;;;5046731;28;20047;-89
2022/08/04 06:23:16;;;;;;;11.32;8.07;;;23.20;99.90;;;;;;5064785;28;20123;-89
2022/08/04 06:25:52;;;;;;;12.48;8.20;;;23.40;99.90;;;;;;5050225;28;20044;-90
2022/08/04 06:28:20;;;;;;;11.63;7.70;;;23.50;99.90;;;;;;5059721;28;20066;-87
2022/08/04 06:30:48;;;;;;;18.92;13.40;;;23.80;99.90;;;;;;5044065;28;20589;-86
2022/08/04 06:33:25;;;;;;;14.90;11.45;;;23.90;99.90;;;;;;5041611;28;20035;-87
2022/08/04 06:35:54;;;;;;;15.82;8.82;;;24.00;99.90;;;;;;5048056;28;20891;-87
2022/08/04 06:38:23;;;;;;;11.93;10.15;;;24.10;99.90;;;;;;5081350;28;20105;-86
2022/08/04 06:40:50;;;;;;;11.10;8.40;;;24.10;99.90;;;;;;5074982;28;20127;-87
2022/08/04 06:43:17;;;;;;;14.57;10.85;;;24.10;99.90;;;;;;5060819;28;20055;-88
2022/08/04 06:45:48;;;;;;;16.13;12.43;;;24.20;99.90;;;;;;5067437;27;20109;-89
2022/08/04 06:48:16;;;;;;;9.95;7.90;;;24.40;99.90;;;;;;5091119;27;20071;-93
2022/08/04 06:50:47;;;;;;;19.13;9.30;;;24.40;99.90;;;;;;5099695;27;20039;-87
2022/08/04 06:53:17;;;;;;;47.30;42.65;;;24.40;99.90;;;;;;5070437;27;20039;-90
2022/08/04 06:55:48;;;;;;;15.27;9.67;;;24.60;99.90;;;;;;5073535;27;20043;-91
2022/08/04 06:58:17;;;;;;;14.48;7.90;;;24.80;99.90;;;;;;5065808;27;20038;-89
2022/08/04 07:00:46;;;;;;;14.05;8.27;;;25.00;99.90;;;;;;5082573;27;20042;-89
2022/08/04 07:03:13;;;;;;;18.73;13.98;;;25.20;99.90;;;;;;5076250;27;20049;-89
2022/08/04 07:05:41;;;;;;;13.52;7.05;;;25.60;99.90;;;;;;5085524;27;20039;-90
2022/08/04 07:08:10;;;;;;;29.13;26.20;;;25.70;99.90;;;;;;5085377;27;20048;-90
2022/08/04 07:10:36;;;;;;;13.27;7.63;;;26.10;99.90;;;;;;5099075;27;20050;-89
2022/08/04 07:13:03;;;;;;;17.40;14.18;;;26.10;99.90;;;;;;5066140;27;21402;-90
2022/08/04 07:15:30;;;;;;;16.75;11.52;;;26.30;99.90;;;;;;5068124;27;20078;-88
2022/08/04 07:18:02;;;;;;;13.13;11.73;;;26.50;99.90;;;;;;5051507;27;20039;-84
2022/08/04 07:20:29;;;;;;;13.35;11.30;;;26.80;99.90;;;;;;5089944;27;20084;-90
2022/08/04 07:22:56;;;;;;;10.85;8.63;;;26.80;99.90;;;;;;5059208;27;20043;-96
2022/08/04 07:25:23;;;;;;;13.25;9.48;;;27.10;99.90;;;;;;5064803;27;20074;-94
2022/08/04 07:27:49;;;;;;;12.13;7.35;;;27.20;99.90;;;;;;5077821;27;20046;-85
2022/08/04 07:30:18;;;;;;;13.52;5.75;;;27.10;99.90;;;;;;5049147;27;20039;-85
2022/08/04 07:32:45;;;;;;;11.05;6.10;;;27.20;99.90;;;;;;5053061;27;20038;-84
2022/08/04 07:35:13;;;;;;;11.70;5.35;;;27.30;99.90;;;;;;5064865;27;20054;-86
2022/08/04 07:37:39;;;;;;;11.48;5.97;;;27.60;99.90;;;;;;5085832;27;20035;-90
2022/08/04 07:40:06;;;;;;;9.65;5.22;;;27.70;99.90;;;;;;5088506;27;20062;-85
2022/08/04 07:42:33;;;;;;;11.10;6.03;;;27.90;99.90;;;;;;5066322;27;20046;-89
2022/08/04 07:44:59;;;;;;;9.32;5.93;;;28.00;99.90;;;;;;5071235;27;20042;-89
2022/08/04 07:47:26;;;;;;;12.98;5.35;;;28.20;99.90;;;;;;5081719;27;20973;-90
2022/08/04 07:49:53;;;;;;;10.88;5.40;;;28.10;99.90;;;;;;5072307;27;20039;-93
2022/08/04 07:52:20;;;;;;;10.23;5.75;;;28.20;99.90;;;;;;5079407;27;20035;-88
2022/08/04 07:54:49;;;;;;;10.73;5.30;;;28.20;99.90;;;;;;5089843;27;20118;-91
2022/08/04 07:57:17;;;;;;;11.18;5.47;;;28.10;99.90;;;;;;5064805;27;20046;-92
2022/08/04 07:59:47;;;;;;;9.27;5.00;;;28.20;99.90;;;;;;5067782;28;20108;-96
2022/08/04 08:02:15;;;;;;;9.15;4.85;;;28.40;99.90;;;;;;5065908;27;20474;-96
2022/08/04 08:04:46;;;;;;;10.10;4.15;;;28.70;99.90;;;;;;5069401;27;20054;-89
2022/08/04 08:07:19;;;;;;;13.32;4.28;;;28.90;99.90;;;;;;5072307;27;20043;-94
2022/08/04 08:10:07;;;;;;;;;;;;;;;;;;;;;
2022/08/04 08:12:42;;;;;;;9.85;5.18;;;28.60;99.90;;;;;;5098244;27;20038;-94
2022/08/04 08:15:24;;;;;;;8.32;4.65;;;28.60;99.90;;;;;;5087489;27;20092;-89
2022/08/04 08:17:51;;;;;;;8.93;3.67;;;28.70;99.90;;;;;;5098140;27;20108;-90
2022/08/04 08:20:36;;;;;;;11.35;3.88;;;28.90;99.90;;;;;;5089182;27;20046;-93
2022/08/04 08:23:08;;;;;;;9.50;3.40;;;29.20;99.90;;;;;;5098485;27;20045;-94
2022/08/04 08:25:39;;;;;;;14.90;3.80;;;29.40;99.90;;;;;;5076733;27;20494;-91
2022/08/04 08:28:15;;;;;;;11.73;4.22;;;29.70;99.90;;;;;;5079702;27;20062;-90
2022/08/04 08:30:45;;;;;;;9.90;3.83;;;30.00;99.90;;;;;;5073197;27;20498;-89
2022/08/04 08:33:33;;;;;;;9.43;3.17;;;30.20;99.90;;;;;;5067964;27;20086;-86
2022/08/04 08:36:52;;;;;;;10.98;3.65;;;30.40;99.90;;;;;;5097929;27;20043;-87
2022/08/04 08:39:24;;;;;;;6.65;3.08;;;30.40;99.90;;;;;;5071810;27;20046;-86
2022/08/04 08:42:09;;;;;;;8.82;3.42;;;30.40;99.90;;;;;;5110474;27;20054;-85
2022/08/04 08:44:55;;;;;;;9.25;2.97;;;30.40;99.90;;;;;;5097341;27;20105;-87
2022/08/04 08:47:40;;;;;;;8.50;2.70;;;30.40;99.90;;;;;;5092836;27;20108;-83
2022/08/04 08:50:40;;;;;;;10.65;3.50;;;30.20;99.90;;;;;;5082484;27;20043;-90
2022/08/04 08:53:35;;;;;;;8.80;3.70;;;30.10;99.90;;;;;;5105270;27;20482;-91
2022/08/04 08:56:04;;;;;;;12.88;3.22;;;30.40;99.90;;;;;;5089411;27;20043;-91
2022/08/04 08:58:53;;;;;;;8.82;3.20;;;30.70;99.90;;;;;;5081862;27;20047;-88
2022/08/04 09:01:47;;;;;;;10.15;3.05;;;30.70;99.60;;;;;;5080830;27;20038;-92
2022/08/04 09:04:38;;;;;;;10.93;3.35;;;31.00;99.90;;;;;;5113040;27;20095;-91
2022/08/04 09:07:26;;;;;;;9.25;2.95;;;30.90;99.10;;;;;;5091513;27;20053;-92
2022/08/04 09:10:05;;;;;;;7.63;3.20;;;30.90;98.80;;;;;;5099141;27;20121;-94
2022/08/04 09:12:46;;;;;;;8.98;3.15;;;31.00;99.20;;;;;;5111883;27;20642;-86
2022/08/04 09:15:15;;;;;;;12.25;3.15;;;31.70;97.80;;;;;;5088528;27;20510;-87
2022/08/04 09:18:01;;;;;;;8.67;3.13;;;31.80;97.90;;;;;;5073580;27;20039;-88
2022/08/04 09:20:43;;;;;;;9.52;3.17;;;32.30;96.70;;;;;;5100333;27;20396;-93
2022/08/04 09:23:36;;;;;;;7.88;2.90;;;32.50;96.40;;;;;;5087182;27;20074;-92
2022/08/04 09:26:19;;;;;;;7.68;3.97;;;32.70;95.70;;;;;;5081360;27;20026;-86
2022/08/04 09:29:15;;;;;;;10.88;3.10;;;33.10;95.00;;;;;;5080082;27;20045;-92
2022/08/04 09:31:53;;;;;;;9.80;3.47;;;33.50;93.60;;;;;;5097778;27;20126;-87
2022/08/04 09:34:58;;;;;;;11.98;3.33;;;33.40;93.30;;;;;;5091130;27;20039;-93
2022/08/04 09:38:02;;;;;;;10.93;3.35;;;33.50;91.60;;;;;;5046421;27;20116;-93
2022/08/04 09:40:39;;;;;;;11.73;5.13;;;33.90;90.90;;;;;;5034072;28;20566;-95
2022/08/04 09:43:49;;;;;;;7.93;3.75;;;33.50;91.00;;;;;;5093346;27;20045;-94
2022/08/04 09:46:29;;;;;;;7.65;3.28;;;33.10;90.50;;;;;;5086102;28;20047;-95
2022/08/04 09:49:15;;;;;;;7.18;3.67;;;33.20;91.50;;;;;;5075706;27;20503;-93
2022/08/04 09:51:52;;;;;;;8.63;4.03;;;33.30;91.20;;;;;;5075283;27;20043;-90
2022/08/04 09:54:33;;;;;;;8.77;3.97;;;33.50;91.70;;;;;;5073523;28;20077;-86
2022/08/04 09:57:14;;;;;;;8.73;3.55;;;33.60;91.30;;;;;;5086406;27;20070;-96
2022/08/04 10:00:00;;;;;;;10.07;3.60;;;33.30;91.90;;;;;;5124963;27;20057;-96
2022/08/04 10:02:51;;;;;;;8.88;4.15;;;32.80;92.10;;;;;;5113667;27;20078;-90
2022/08/04 10:05:58;;;;;;;9.98;5.10;;;32.30;92.00;;;;;;5078297;27;20092;-96
2022/08/04 10:08:59;;;;;;;11.07;3.97;;;31.80;94.40;;;;;;5021566;28;20233;-85
2022/08/04 10:11:56;;;;;;;10.57;4.20;;;31.60;94.50;;;;;;5037421;28;20051;-85
2022/08/04 10:14:40;;;;;;;10.27;3.92;;;31.60;95.00;;;;;;5022708;28;20075;-85
2022/08/04 10:17:31;;;;;;;10.15;4.20;;;31.60;94.60;;;;;;4967238;28;20045;-84
2022/08/04 10:20:08;;;;;;;9.90;3.83;;;31.90;95.60;;;;;;5004497;28;20447;-85
2022/08/04 10:22:55;;;;;;;9.73;4.53;;;31.90;96.20;;;;;;4992659;28;20046;-86
2022/08/04 10:25:44;;;;;;;8.93;4.10;;;32.00;95.30;;;;;;4990074;28;20052;-85
2022/08/04 10:28:15;;;;;;;9.77;3.25;;;31.80;92.90;;;;;;4994316;28;20144;-84
2022/08/04 10:30:48;;;;;;;6.47;2.60;;;32.00;93.00;;;;;;5022749;28;20291;-82
2022/08/04 10:33:23;;;;;;;6.05;3.08;;;32.30;92.30;;;;;;5037226;28;20141;-82
2022/08/04 10:36:18;;;;;;;9.18;2.80;;;32.30;92.20;;;;;;4996515;28;20048;-88
2022/08/04 10:39:04;;;;;;;9.98;2.88;;;32.60;91.10;;;;;;5003919;28;20056;-84
2022/08/04 10:41:55;;;;;;;8.73;3.47;;;32.50;91.80;;;;;;5005589;28;20075;-84
2022/08/04 10:45:07;;;;;;;9.25;2.63;;;32.40;91.30;;;;;;5005041;28;20045;-83
2022/08/04 10:47:42;;;;;;;9.43;2.92;;;31.90;91.70;;;;;;5037662;28;20052;-84
2022/08/04 10:50:11;;;;;;;7.22;2.30;;;31.90;90.80;;;;;;5008064;28;20041;-83
2022/08/04 10:52:45;;;;;;;5.63;2.50;;;31.60;91.60;;;;;;5005802;28;20049;-83
2022/08/04 10:55:17;;;;;;;4.13;2.20;;;32.00;91.60;;;;;;4991368;28;20071;-84
2022/08/04 10:57:49;;;;;;;6.65;2.65;;;32.30;92.40;;;;;;5023966;28;20048;-82
2022/08/04 11:00:23;;;;;;;7.28;2.03;;;32.50;91.00;;;;;;5013430;28;20396;-84
2022/08/04 11:02:58;;;;;;;5.90;2.70;;;32.60;91.60;;;;;;5014112;28;20048;-84
2022/08/04 11:05:38;;;;;;;6.10;1.73;;;32.60;90.40;;;;;;4987427;28;20754;-84
2022/08/04 11:08:15;;;;;;;7.30;2.05;;;32.40;90.30;;;;;;5019920;28;20768;-84
2022/08/04 11:10:47;;;;;;;7.90;2.42;;;31.90;87.90;;;;;;5038694;28;20170;-84
2022/08/04 11:13:16;;;;;;;6.78;2.17;;;32.10;86.90;;;;;;5020792;28;20044;-84
2022/08/04 11:15:55;;;;;;;5.47;1.95;;;32.20;88.00;;;;;;4988159;28;20132;-84
2022/08/04 11:18:38;;;;;;;5.70;2.50;;;32.70;87.70;;;;;;5019269;28;20049;-85
2022/08/04 11:21:14;;;;;;;8.82;2.60;;;32.40;87.40;;;;;;5002380;28;20041;-85
2022/08/04 11:23:46;;;;;;;8.63;2.97;;;32.30;87.80;;;;;;5020926;28;20851;-85
2022/08/04 11:26:20;;;;;;;9.63;2.10;;;31.90;87.20;;;;;;5006739;28;20128;-87
2022/08/04 11:29:04;;;;;;;6.72;2.10;;;31.80;89.00;;;;;;4908364;28;36653;-86
2022/08/04 11:31:34;;;;;;;7.15;2.40;;;31.40;89.60;;;;;;4979280;28;20101;-84
2022/08/04 11:34:16;;;;;;;8.32;2.30;;;31.20;90.00;;;;;;4981272;28;20189;-85
2022/08/04 11:36:54;;;;;;;7.40;2.47;;;31.20;90.10;;;;;;4983021;28;20047;-84
2022/08/04 11:39:46;;;;;;;8.52;2.10;;;31.40;90.80;;;;;;4950136;28;20049;-84
2022/08/04 11:42:21;;;;;;;5.75;1.80;;;31.70;90.40;;;;;;4975131;28;20085;-85
2022/08/04 11:45:05;;;;;;;8.60;2.53;;;31.20;90.70;;;;;;4979561;28;20050;-85
2022/08/04 11:47:38;;;;;;;8.30;1.85;;;31.00;90.90;;;;;;4967509;28;20074;-83
2022/08/04 11:50:13;;;;;;;8.13;2.72;;;30.70;91.30;;;;;;4973261;28;20108;-83
2022/08/04 11:52:43;;;;;;;9.82;2.05;;;30.50;91.50;;;;;;5020315;28;20082;-84
2022/08/04 11:55:15;;;;;;;7.63;2.25;;;30.30;92.70;;;;;;4986597;28;20061;-81
2022/08/04 11:57:46;;;;;;;7.18;1.85;;;30.00;93.40;;;;;;4998517;28;20054;-85
2022/08/04 12:00:16;;;;;;;7.05;1.90;;;29.80;94.90;;;;;;4980256;28;20053;-84
2022/08/04 12:02:48;;;;;;;8.20;2.33;;;29.50;95.60;;;;;;4991508;28;20084;-84
2022/08/04 12:05:18;;;;;;;4.97;1.80;;;29.50;96.60;;;;;;4975098;28;20042;-84
2022/08/04 12:08:18;;;;;;;6.10;2.13;;;29.20;97.20;;;;;;5009856;28;20119;-85
2022/08/04 12:11:22;;;;;;;5.25;1.90;;;29.20;97.60;;;;;;4972662;28;20037;-85
2022/08/04 12:14:04;;;;;;;3.33;1.48;;;28.90;98.90;;;;;;4966318;28;20042;-85
2022/08/04 12:16:47;;;;;;;62.30;56.42;;;28.70;99.00;;;;;;4969535;28;20144;-82
2022/08/04 12:19:42;;;;;;;15.27;13.82;;;28.70;99.90;;;;;;4979487;28;20054;-83
2022/08/04 12:22:16;;;;;;;5.85;1.88;;;28.50;99.90;;;;;;4968078;28;20042;-83
2022/08/04 12:25:06;;;;;;;5.40;2.45;;;28.30;99.90;;;;;;4966656;28;20054;-82
2022/08/04 12:27:38;;;;;;;4.38;2.78;;;28.00;99.90;;;;;;4966405;28;20119;-82
2022/08/04 12:30:05;;;;;;;14.80;12.43;;;27.80;99.90;;;;;;4998331;28;20668;-82
2022/08/04 12:32:44;;;;;;;4.18;2.00;;;27.70;99.90;;;;;;4982529;28;20069;-84
2022/08/04 12:35:39;;;;;;;3.90;1.75;;;27.60;99.90;;;;;;4981077;28;20042;-84
2022/08/04 12:38:11;;;;;;;5.03;1.83;;;27.30;99.90;;;;;;4984408;28;20168;-83
2022/08/04 12:40:51;;;;;;;5.03;2.95;;;27.30;99.90;;;;;;4974630;28;20048;-85
2022/08/04 12:43:34;;;;;;;9.30;5.10;;;27.10;99.90;;;;;;4965496;28;20050;-83
2022/08/04 12:46:22;;;;;;;3.40;1.85;;;27.10;99.90;;;;;;4968064;28;20061;-84
2022/08/04 12:48:49;;;;;;;5.43;1.70;;;27.00;99.90;;;;;;4978912;28;20559;-84
2022/08/04 12:51:17;;;;;;;4.57;1.90;;;26.90;99.90;;;;;;4979821;28;20141;-84
2022/08/04 12:53:44;;;;;;;8.65;2.40;;;26.80;99.90;;;;;;4995617;28;20049;-84
2022/08/04 12:56:13;;;;;;;3.72;1.80;;;26.90;99.90;;;;;;4988739;28;20077;-84
2022/08/04 12:58:52;;;;;;;6.13;2.90;;;27.00;99.90;;;;;;4999351;28;20050;-83
2022/08/04 13:01:20;;;;;;;3.80;1.58;;;27.20;99.90;;;;;;4981504;28;21573;-83
2022/08/04 13:03:54;;;;;;;4.35;1.90;;;27.50;99.90;;;;;;4995664;28;20096;-83
2022/08/04 13:06:25;;;;;;;3.85;1.85;;;27.50;99.90;;;;;;4963673;28;20045;-84
2022/08/04 13:08:53;;;;;;;3.20;1.55;;;27.60;99.90;;;;;;4983377;28;20037;-83
2022/08/04 13:11:22;;;;;;;4.72;1.27;;;27.80;99.90;;;;;;4949508;28;20124;-83
2022/08/04 13:13:54;;;;;;;2.60;1.20;;;28.00;99.90;;;;;;4995827;28;20498;-83
2022/08/04 13:16:31;;;;;;;2.92;1.33;;;28.30;99.90;;;;;;4982409;28;20164;-83
2022/08/04 13:18:58;;;;;;;2.97;1.38;;;28.80;99.90;;;;;;4993736;28;20057;-82
2022/08/04 13:21:27;;;;;;;4.00;1.35;;;29.30;99.80;;;;;;4945443;28;20046;-82
2022/08/04 13:24:02;;;;;;;2.75;1.40;;;29.80;99.00;;;;;;4979421;28;20049;-82
2022/08/04 13:26:29;;;;;;;2.33;1.08;;;30.40;96.90;;;;;;4962106;28;20057;-83
2022/08/04 13:29:01;;;;;;;2.97;1.25;;;30.50;96.70;;;;;;4963911;28;20483;-82
2022/08/04 13:31:29;;;;;;;2.88;1.10;;;30.70;95.50;;;;;;4965814;28;20168;-83
2022/08/04 13:34:04;;;;;;;4.47;1.50;;;31.00;95.00;;;;;;4980060;28;20566;-83
2022/08/04 13:36:31;;;;;;;2.72;1.20;;;31.40;92.60;;;;;;4948918;28;20125;-82
2022/08/04 13:39:02;;;;;;;2.75;1.10;;;31.80;92.50;;;;;;4932394;28;20521;-82
2022/08/04 13:41:29;;;;;;;;;;;32.10;91.50;;;;;;4946535;28;20809;-82